Time;durP1;ratioP1;P1;durP2;ratioP2;P2;SDS_P1;SDS_P2;PMS_P1;PMS_P2;Temp;Humidity;BMP_temperature;BMP_pressure;BME280_temperature;BME280_humidity;BME280_pressure;Samples;Min_cycle;Max_cycle;Signal;HPM_P1;HPM_P2
2021/08/10 00:01:49;;;;;;;3.40;1.75;;;;;;;26.04;50.19;100509.41;5115321;28;20069;-71
2021/08/10 00:04:15;;;;;;;2.38;1.75;;;;;;;25.94;50.01;100493.47;5115759;28;20027;-71
2021/08/10 00:06:44;;;;;;;3.00;2.00;;;;;;;25.81;50.66;100499.22;5115757;28;20473;-71
2021/08/10 00:09:11;;;;;;;5.95;2.15;;;;;;;25.94;50.12;100493.47;5117004;28;20099;-70
2021/08/10 00:11:41;;;;;;;3.92;2.30;;;;;;;25.82;50.35;100483.69;5115690;28;20019;-70
2021/08/10 00:14:14;;;;;;;3.08;1.70;;;;;;;25.79;49.89;100461.84;5115134;28;20118;-70
2021/08/10 00:16:42;;;;;;;3.77;2.00;;;;;;;25.83;50.07;100456.78;5114735;27;20020;-70
2021/08/10 00:19:13;;;;;;;2.53;1.70;;;;;;;25.74;50.24;100453.84;5114826;27;20078;-71
2021/08/10 00:21:41;;;;;;;4.45;2.33;;;;;;;25.85;49.95;100454.28;5132078;27;20057;-70
2021/08/10 00:24:09;;;;;;;2.30;1.95;;;;;;;25.77;49.99;100442.34;5114909;28;20077;-70
2021/08/10 00:26:37;;;;;;;2.50;1.67;;;;;;;25.83;50.03;100463.31;5114869;28;20024;-70
2021/08/10 00:29:06;;;;;;;4.50;1.90;;;;;;;25.73;50.30;100446.56;5114784;28;20476;-70
2021/08/10 00:31:36;;;;;;;5.35;2.25;;;;;;;25.78;50.46;100457.38;5115030;28;20492;-70
2021/08/10 00:34:05;;;;;;;2.92;2.15;;;;;;;25.59;50.83;100454.34;5114675;28;20114;-71
2021/08/10 00:36:33;;;;;;;4.07;2.55;;;;;;;25.53;51.06;100455.38;5114592;28;20092;-72
2021/08/10 00:39:03;;;;;;;4.28;2.20;;;;;;;25.31;51.67;100475.25;5116169;28;20028;-71
2021/08/10 00:41:30;;;;;;;3.22;1.90;;;;;;;25.22;52.05;100478.00;5114511;28;20035;-71
2021/08/10 00:44:02;;;;;;;3.38;1.85;;;;;;;25.22;52.25;100489.38;5114519;28;20019;-70
2021/08/10 00:46:30;;;;;;;4.50;1.75;;;;;;;25.22;52.25;100503.63;5115045;28;20027;-71
2021/08/10 00:48:59;;;;;;;3.60;1.95;;;;;;;25.50;52.00;100502.66;5114439;28;20027;-71
2021/08/10 00:51:27;;;;;;;2.95;1.98;;;;;;;25.38;51.61;100499.84;5114635;28;20543;-71
2021/08/10 00:53:53;;;;;;;6.57;2.10;;;;;;;25.39;51.33;100502.22;5114570;28;20439;-70
2021/08/10 00:56:24;;;;;;;2.83;2.17;;;;;;;25.37;51.65;100521.84;5114113;28;20539;-70
2021/08/10 00:58:53;;;;;;;5.72;2.63;;;;;;;25.45;50.93;100526.03;5114188;28;20035;-71
2021/08/10 01:01:21;;;;;;;2.92;2.08;;;;;;;25.40;51.12;100526.59;5114194;28;20076;-72
2021/08/10 01:03:52;;;;;;;4.30;2.30;;;;;;;25.32;51.07;100530.94;5113816;28;20071;-70
2021/08/10 01:06:41;;;;;;;3.30;2.83;;;;;;;25.39;50.79;100530.72;5114590;28;20022;-71
2021/08/10 01:09:17;;;;;;;3.20;2.50;;;;;;;25.44;50.28;100530.13;5114066;28;20059;-71
2021/08/10 01:12:28;;;;;;;3.13;2.15;;;;;;;25.38;50.34;100534.03;5131054;27;20059;-72
2021/08/10 01:15:07;;;;;;;7.07;2.20;;;;;;;25.40;50.33;100532.28;5114386;28;20474;-71
2021/08/10 01:17:44;;;;;;;3.10;2.50;;;;;;;25.41;50.42;100539.63;5113828;28;20047;-70
2021/08/10 01:20:48;;;;;;;4.65;3.50;;;;;;;25.38;50.46;100540.50;5114885;28;20050;-72
2021/08/10 01:23:24;;;;;;;4.93;2.67;;;;;;;25.40;51.24;100537.19;5114265;28;20021;-71
2021/08/10 01:26:24;;;;;;;3.45;2.22;;;;;;;25.47;50.79;100549.19;5114112;28;20104;-72
2021/08/10 01:28:52;;;;;;;2.88;2.50;;;;;;;25.32;51.19;100542.34;5028625;28;20043;-70
2021/08/10 01:31:27;;;;;;;4.50;2.30;;;;;;;25.30;51.45;100539.13;5113577;28;20030;-71
2021/08/10 01:34:02;;;;;;;4.97;2.55;;;;;;;25.34;51.71;100548.38;5114054;28;20370;-72
2021/08/10 01:36:36;;;;;;;3.72;2.67;;;;;;;25.39;51.15;100553.50;5130531;27;20031;-70
2021/08/10 01:39:05;;;;;;;2.45;2.17;;;;;;;25.36;51.63;100543.03;5113571;28;20045;-72
2021/08/10 01:41:33;;;;;;;3.75;2.30;;;;;;;25.29;51.52;100549.72;5114676;28;20034;-71
2021/08/10 01:44:04;;;;;;;3.83;2.47;;;;;;;25.10;52.02;100547.13;5113329;28;20028;-72
2021/08/10 01:46:36;;;;;;;5.20;2.70;;;;;;;25.06;51.91;100547.22;5113914;28;20039;-71
2021/08/10 01:49:02;;;;;;;5.20;2.30;;;;;;;25.09;51.89;100543.47;5096460;28;20378;-71
2021/08/10 01:51:30;;;;;;;4.75;2.53;;;;;;;25.16;51.36;100539.59;5113228;28;20038;-70
2021/08/10 01:54:02;;;;;;;4.10;2.90;;;;;;;25.09;51.87;100537.78;5130307;27;20023;-70
2021/08/10 01:56:29;;;;;;;2.80;2.15;;;;;;;25.06;51.56;100542.31;5113115;28;20058;-70
2021/08/10 01:58:57;;;;;;;3.70;2.30;;;;;;;25.07;51.94;100543.91;5130253;27;20088;-70
2021/08/10 02:01:28;;;;;;;2.70;2.05;;;;;;;25.13;51.24;100532.75;5130203;27;20031;-70
2021/08/10 02:03:57;;;;;;;3.15;2.35;;;;;;;25.15;50.98;100538.81;5113087;28;20080;-71
2021/08/10 02:06:26;;;;;;;2.63;2.20;;;;;;;25.14;51.23;100537.22;5113897;28;20077;-70
2021/08/10 02:08:57;;;;;;;2.92;2.20;;;;;;;25.07;51.79;100531.72;5113879;27;20373;-71
2021/08/10 02:11:26;;;;;;;5.07;2.22;;;;;;;25.03;51.86;100523.25;5112967;28;20062;-70
2021/08/10 02:13:53;;;;;;;5.50;3.03;;;;;;;25.01;52.13;100516.44;5112930;28;20028;-72
2021/08/10 02:16:19;;;;;;;2.30;2.10;;;;;;;24.97;52.07;100516.56;5112799;28;20531;-70
2021/08/10 02:18:50;;;;;;;3.60;2.72;;;;;;;25.02;52.03;100507.44;5112786;28;20156;-70
2021/08/10 02:21:27;;;;;;;4.70;2.55;;;;;;;24.94;51.97;100510.97;5129914;27;20055;-70
2021/08/10 02:24:08;;;;;;;2.28;2.08;;;;;;;24.98;52.49;100512.47;5129919;27;20028;-70
2021/08/10 02:26:50;;;;;;;2.80;2.60;;;;;;;24.92;52.67;100517.09;5112494;28;20114;-71
2021/08/10 02:29:19;;;;;;;3.17;2.88;;;;;;;25.13;52.42;100509.19;5112735;28;20027;-70
2021/08/10 02:31:46;;;;;;;8.50;6.72;;;;;;;25.08;52.63;100513.41;5112620;28;20039;-71
2021/08/10 02:34:14;;;;;;;48.25;38.10;;;;;;;24.95;52.74;100521.13;5130288;28;20529;-70
2021/08/10 02:36:46;;;;;;;54.58;42.45;;;;;;;24.84;53.34;100501.53;5095961;28;20028;-71
2021/08/10 02:39:15;;;;;;;28.77;21.65;;;;;;;24.89;53.06;100525.78;5112568;28;20019;-71
2021/08/10 02:41:43;;;;;;;26.08;20.48;;;;;;;24.80;53.11;100517.91;5112607;28;20028;-71
2021/08/10 02:44:10;;;;;;;33.05;27.88;;;;;;;24.72;53.22;100519.38;5113183;28;20027;-70
2021/08/10 02:46:42;;;;;;;33.75;30.25;;;;;;;24.71;53.24;100520.59;5112654;28;20066;-71
2021/08/10 02:49:09;;;;;;;26.25;23.55;;;;;;;24.68;53.40;100510.16;5112529;28;20027;-70
2021/08/10 02:51:38;;;;;;;24.58;22.38;;;;;;;24.69;53.39;100512.53;5113448;28;20046;-70
2021/08/10 02:54:05;;;;;;;26.23;23.65;;;;;;;24.74;53.25;100519.72;5112449;28;20020;-70
2021/08/10 02:56:42;;;;;;;36.15;32.35;;;;;;;24.73;53.31;100516.06;5112330;28;20200;-71
2021/08/10 02:59:25;;;;;;;24.40;20.77;;;;;;;24.76;53.00;100511.50;5095653;28;20020;-70
2021/08/10 03:02:10;;;;;;;11.48;10.25;;;;;;;24.79;52.68;100519.16;5112373;28;20032;-70
2021/08/10 03:04:46;;;;;;;7.90;4.47;;;;;;;24.88;52.32;100510.75;5112919;28;20023;-71
2021/08/10 03:07:15;;;;;;;6.35;2.85;;;;;;;24.80;52.42;100515.84;5112335;28;20032;-71
2021/08/10 03:09:44;;;;;;;4.97;2.92;;;;;;;24.71;52.55;100514.91;5112353;28;20031;-71
2021/08/10 03:12:17;;;;;;;4.40;2.47;;;;;;;24.74;52.84;100511.19;5112287;28;20474;-70
2021/08/10 03:14:49;;;;;;;3.97;2.10;;;;;;;24.81;52.68;100516.66;5114123;28;20051;-71
2021/08/10 03:17:22;;;;;;;2.20;1.92;;;;;;;24.81;52.37;100513.81;5112443;28;20096;-70
2021/08/10 03:19:50;;;;;;;;;;;;;;;24.82;52.55;100521.09;5115902;28;20054;-71
2021/08/10 03:22:17;;;;;;;2.58;2.25;;;;;;;24.82;52.86;100521.91;5116419;28;20297;-70
2021/08/10 03:24:49;;;;;;;2.58;2.13;;;;;;;24.71;52.53;100521.41;5133202;27;20039;-71
2021/08/10 03:27:22;;;;;;;3.50;2.30;;;;;;;24.51;53.32;100521.59;5116260;28;20081;-70
2021/08/10 03:29:53;;;;;;;4.25;2.28;;;;;;;24.48;53.83;100518.84;5116000;28;20122;-70
2021/08/10 03:32:25;;;;;;;3.83;2.10;;;;;;;24.48;53.52;100513.16;5115928;28;20449;-71
2021/08/10 03:34:53;;;;;;;4.78;2.40;;;;;;;24.52;53.25;100508.97;5115850;28;20080;-71
2021/08/10 03:37:19;;;;;;;3.17;2.10;;;;;;;24.50;53.19;100511.47;5098972;28;20031;-71
2021/08/10 03:39:50;;;;;;;3.00;2.20;;;;;;;24.52;53.41;100514.66;5115730;28;20031;-71
2021/08/10 03:42:21;;;;;;;4.25;2.08;;;;;;;24.51;53.32;100506.59;5115792;28;20023;-71
2021/08/10 03:44:54;;;;;;;4.43;2.28;;;;;;;24.51;53.07;100510.22;5116183;28;20398;-72
2021/08/10 03:47:25;;;;;;;3.30;2.30;;;;;;;24.48;53.39;100513.16;5117265;28;20481;-71
2021/08/10 03:49:55;;;;;;;6.22;3.00;;;;;;;24.37;53.84;100515.53;5115832;28;20050;-72
2021/08/10 03:52:24;;;;;;;3.33;2.50;;;;;;;24.25;54.47;100508.53;5115730;28;20054;-72
2021/08/10 03:54:52;;;;;;;3.40;2.50;;;;;;;24.21;54.63;100511.44;5115529;28;20035;-71
2021/08/10 03:57:21;;;;;;;5.43;2.67;;;;;;;24.19;54.73;100516.81;5115398;28;20063;-70
2021/08/10 03:59:59;;;;;;;4.72;2.28;;;;;;;24.32;54.12;100511.16;5133066;27;20034;-70
2021/08/10 04:02:28;;;;;;;3.28;2.13;;;;;;;24.23;54.49;100519.53;5115915;28;20114;-71
2021/08/10 04:04:59;;;;;;;4.88;3.08;;;;;;;24.33;55.45;100518.44;5098499;28;20038;-70
2021/08/10 04:07:26;;;;;;;5.10;3.55;;;;;;;24.56;54.91;100512.53;5115450;28;20382;-71
2021/08/10 04:09:55;;;;;;;9.10;3.05;;;;;;;24.55;55.00;100508.09;5115395;28;20489;-70
2021/08/10 04:12:21;;;;;;;9.32;3.17;;;;;;;24.44;55.48;100518.94;5115280;28;20046;-71
2021/08/10 04:14:47;;;;;;;4.78;3.38;;;;;;;24.42;55.67;100515.75;5115180;28;20588;-71
2021/08/10 04:17:16;;;;;;;7.07;3.33;;;;;;;24.43;55.74;100520.19;5114813;28;20035;-70
2021/08/10 04:19:47;;;;;;;6.40;3.55;;;;;;;24.49;55.61;100526.13;5114493;28;20047;-71
2021/08/10 04:22:17;;;;;;;5.28;2.97;;;;;;;24.55;55.15;100508.09;5115118;28;20054;-71
2021/08/10 04:24:45;;;;;;;5.72;3.03;;;;;;;24.75;54.68;100515.63;5115256;28;20385;-70
2021/08/10 04:27:15;;;;;;;8.30;3.17;;;;;;;24.77;54.25;100511.09;5114758;27;20036;-71
2021/08/10 04:29:44;;;;;;;5.53;2.90;;;;;;;24.78;54.28;100509.03;5115274;28;20059;-71
2021/08/10 04:32:13;;;;;;;4.95;3.33;;;;;;;24.75;54.49;100481.47;5115920;28;20028;-71
2021/08/10 04:34:39;;;;;;;7.13;3.30;;;;;;;25.07;53.82;100498.38;5115935;28;20050;-70
2021/08/10 04:37:05;;;;;;;5.50;3.20;;;;;;;25.18;53.15;100502.94;5114722;28;20028;-71
2021/08/10 04:39:33;;;;;;;8.27;3.50;;;;;;;25.23;52.93;100493.81;5114547;28;20478;-71
2021/08/10 04:42:01;;;;;;;5.38;2.97;;;;;;;25.33;52.56;100489.81;5131695;27;20031;-71
2021/08/10 04:44:29;;;;;;;4.95;3.17;;;;;;;25.45;52.42;100483.31;5115042;28;20386;-71
2021/08/10 04:46:57;;;;;;;3.40;2.83;;;;;;;25.64;51.99;100487.16;5114479;28;20027;-71
2021/08/10 04:49:25;;;;;;;4.68;3.00;;;;;;;25.88;51.38;100487.56;5114923;28;20382;-71
2021/08/10 04:51:55;;;;;;;5.65;3.20;;;;;;;26.08;50.74;100490.91;5114583;28;20043;-71
2021/08/10 04:54:26;;;;;;;3.88;3.03;;;;;;;26.24;49.92;100492.78;5132290;27;20035;-70
2021/08/10 04:56:54;;;;;;;3.20;2.47;;;;;;;26.43;49.66;100492.94;5114268;28;20125;-70
2021/08/10 04:59:19;;;;;;;3.17;2.40;;;;;;;26.60;48.90;100480.84;5114172;28;20031;-71
2021/08/10 05:01:47;;;;;;;4.07;2.58;;;;;;;26.85;48.35;100487.66;5113992;28;20023;-71
2021/08/10 05:04:18;;;;;;;6.50;2.65;;;;;;;27.05;47.73;100482.34;5114429;28;20035;-72
2021/08/10 05:06:49;;;;;;;3.03;2.45;;;;;;;27.27;47.46;100470.88;5113983;28;20024;-70
2021/08/10 05:09:16;;;;;;;5.90;2.30;;;;;;;27.53;46.70;100474.25;5113958;28;20024;-71
2021/08/10 05:11:44;;;;;;;8.07;2.35;;;;;;;27.79;46.00;100465.44;5115206;28;20420;-71
2021/08/10 05:14:13;;;;;;;5.28;2.90;;;;;;;27.95;45.69;100462.25;5114123;28;20039;-71
2021/08/10 05:16:44;;;;;;;10.23;3.65;;;;;;;28.10;44.90;100454.63;5114767;28;20024;-71
2021/08/10 05:19:12;;;;;;;3.85;2.80;;;;;;;28.34;44.45;100460.53;5113650;28;20043;-71
2021/08/10 05:21:38;;;;;;;7.85;2.65;;;;;;;28.63;44.02;100462.84;5113798;28;20043;-71
2021/08/10 05:24:06;;;;;;;6.05;3.20;;;;;;;28.96;42.82;100470.72;5131354;27;20458;-71
2021/08/10 05:26:32;;;;;;;6.88;2.70;;;;;;;29.21;41.91;100464.56;5130645;27;20028;-71
2021/08/10 05:29:03;;;;;;;6.65;2.20;;;;;;;29.52;41.11;100465.50;5113474;28;20043;-72
2021/08/10 05:31:28;;;;;;;3.53;2.10;;;;;;;29.76;40.11;100463.44;5113493;28;20058;-70
2021/08/10 05:33:56;;;;;;;6.97;2.50;;;;;;;29.98;39.86;100465.97;5114011;28;20089;-71
2021/08/10 05:36:27;;;;;;;7.40;2.42;;;;;;;30.27;39.58;100471.00;5130427;27;20083;-70
2021/08/10 05:38:57;;;;;;;9.77;3.10;;;;;;;30.64;39.02;100482.91;5113921;28;20396;-71
2021/08/10 05:41:26;;;;;;;4.93;2.50;;;;;;;30.83;38.64;100462.63;5129983;27;20024;-71
2021/08/10 05:43:54;;;;;;;3.80;2.00;;;;;;;31.35;37.97;100485.94;5130698;27;20028;-71
2021/08/10 05:46:20;;;;;;;5.53;2.10;;;;;;;31.68;37.21;100480.66;5113381;28;20132;-71
2021/08/10 05:48:48;;;;;;;2.47;2.13;;;;;;;32.01;36.69;100485.25;5113675;28;20466;-72
2021/08/10 05:51:14;;;;;;;4.40;2.28;;;;;;;32.34;36.14;100485.66;5113377;28;20027;-71
2021/08/10 05:53:44;;;;;;;6.07;2.42;;;;;;;32.63;35.79;100481.00;5113092;28;20488;-73
2021/08/10 05:56:16;;;;;;;5.47;4.25;;;;;;;32.92;35.23;100476.28;5112991;28;20028;-73
2021/08/10 05:58:44;;;;;;;8.20;3.60;;;;;;;33.26;34.13;100489.66;5113228;28;20040;-72
2021/08/10 06:01:16;;;;;;;5.35;3.22;;;;;;;33.61;33.83;100479.91;5112959;28;20032;-72
2021/08/10 06:03:47;;;;;;;6.97;2.88;;;;;;;33.85;33.48;100488.16;5112973;28;20045;-72
2021/08/10 06:06:15;;;;;;;3.03;2.55;;;;;;;34.21;33.12;100486.50;5112829;28;20081;-71
2021/08/10 06:08:46;;;;;;;4.95;2.55;;;;;;;34.53;32.27;100483.44;5112523;28;20414;-71
2021/08/10 06:11:16;;;;;;;6.72;2.58;;;;;;;34.79;32.30;100488.97;5129996;27;20063;-71
2021/08/10 06:13:47;;;;;;;5.47;2.42;;;;;;;34.80;31.90;100485.56;5112730;28;20027;-71
2021/08/10 06:16:15;;;;;;;3.50;2.20;;;;;;;35.05;30.68;100491.59;5130062;27;20023;-72
2021/08/10 06:18:46;;;;;;;3.95;2.42;;;;;;;35.28;29.78;100496.06;5129958;27;20051;-71
2021/08/10 06:21:14;;;;;;;3.38;2.25;;;;;;;35.59;29.46;100502.88;5129948;27;20032;-72
2021/08/10 06:23:40;;;;;;;3.30;2.42;;;;;;;35.87;28.98;100503.56;5113113;28;20032;-71
2021/08/10 06:26:08;;;;;;;4.95;2.40;;;;;;;36.24;28.39;100510.25;5112525;28;20034;-71
2021/08/10 06:28:34;;;;;;;6.20;2.63;;;;;;;35.85;28.34;100509.09;5114439;28;20024;-71
2021/08/10 06:31:03;;;;;;;6.72;3.10;;;;;;;36.33;28.24;100519.44;5113004;28;20084;-72
2021/08/10 06:33:32;;;;;;;3.30;2.72;;;;;;;36.67;27.10;100513.44;5129727;28;20035;-72
2021/08/10 06:36:00;;;;;;;4.82;3.10;;;;;;;36.52;26.84;100513.81;5129567;28;20023;-71
2021/08/10 06:38:26;;;;;;;4.53;2.25;;;;;;;36.61;27.10;100522.19;5129662;28;20035;-72
2021/08/10 06:40:55;;;;;;;13.25;3.08;;;;;;;36.49;28.76;100514.06;5112720;28;20053;-72
2021/08/10 06:43:21;;;;;;;6.20;2.67;;;;;;;36.25;29.56;100503.16;5113083;28;20043;-72
2021/08/10 06:45:49;;;;;;;9.27;4.88;;;;;;;36.45;29.33;100512.28;5112409;28;20386;-71
2021/08/10 06:48:17;;;;;;;7.78;3.85;;;;;;;36.20;26.62;100517.13;5112256;28;20028;-71
2021/08/10 06:50:45;;;;;;;5.63;3.15;;;;;;;36.41;26.84;100508.88;5112462;28;20542;-71
2021/08/10 06:53:15;;;;;;;5.97;3.78;;;;;;;35.91;27.78;100511.97;5113294;28;20063;-71
2021/08/10 06:55:44;;;;;;;9.70;4.05;;;;;;;36.03;27.20;100515.63;5116091;28;20023;-71
2021/08/10 06:58:14;;;;;;;14.57;4.18;;;;;;;36.79;26.32;100520.72;5116519;28;20031;-71
2021/08/10 07:00:42;;;;;;;8.02;4.65;;;;;;;36.00;27.09;100519.59;5116456;28;20432;-71
2021/08/10 07:03:10;;;;;;;9.32;4.40;;;;;;;35.98;26.56;100513.53;5116556;28;20031;-72
2021/08/10 07:05:36;;;;;;;5.38;4.43;;;;;;;35.77;26.33;100513.84;5133343;27;20085;-71
2021/08/10 07:08:07;;;;;;;8.63;4.40;;;;;;;36.57;26.19;100515.09;5116196;28;20070;-72
2021/08/10 07:10:38;;;;;;;6.32;4.15;;;;;;;36.26;26.29;100519.97;5117408;28;20030;-72
2021/08/10 07:13:06;;;;;;;8.35;4.55;;;;;;;36.04;26.67;100525.88;5116918;28;20053;-71
2021/08/10 07:15:32;;;;;;;9.35;4.38;;;;;;;36.00;26.41;100531.16;5132978;27;20084;-72
2021/08/10 07:18:00;;;;;;;6.57;4.60;;;;;;;36.04;27.12;100523.78;5116033;28;20039;-72
2021/08/10 07:20:28;;;;;;;8.25;4.93;;;;;;;35.69;27.47;100531.00;5117445;28;20032;-72
2021/08/10 07:22:57;;;;;;;9.23;4.63;;;;;;;36.29;26.67;100524.72;5115826;28;20165;-71
2021/08/10 07:25:27;;;;;;;9.40;4.70;;;;;;;36.82;25.94;100519.66;5115937;28;20023;-72
2021/08/10 07:27:53;;;;;;;5.47;3.70;;;;;;;36.54;25.78;100519.88;5115923;28;20130;-71
2021/08/10 07:30:18;;;;;;;10.70;4.68;;;;;;;36.68;25.66;100523.69;5115915;28;20165;-72
2021/08/10 07:32:47;;;;;;;9.55;4.05;;;;;;;36.79;25.57;100526.50;5115964;28;20027;-72
2021/08/10 07:35:15;;;;;;;6.50;4.03;;;;;;;36.51;25.59;100526.72;5115628;28;20031;-72
2021/08/10 07:37:44;;;;;;;11.30;4.43;;;;;;;36.35;25.12;100516.78;5116283;28;20099;-71
2021/08/10 07:40:11;;;;;;;9.23;4.60;;;;;;;36.30;25.54;100520.50;5115949;28;20026;-72
2021/08/10 07:42:37;;;;;;;7.90;3.90;;;;;;;36.07;26.01;100519.81;5133061;27;20470;-72
2021/08/10 07:45:05;;;;;;;10.88;3.95;;;;;;;35.79;25.79;100525.69;5115130;28;20505;-72
2021/08/10 07:47:33;;;;;;;7.60;3.47;;;;;;;35.74;26.21;100514.91;5115433;28;20028;-73
2021/08/10 07:50:05;;;;;;;6.32;4.30;;;;;;;35.33;26.28;100509.72;5115411;28;20032;-71
2021/08/10 07:52:31;;;;;;;7.63;4.47;;;;;;;34.85;26.58;100507.09;5132978;27;20023;-72
2021/08/10 07:54:59;;;;;;;11.75;4.68;;;;;;;35.57;26.40;100517.06;5115716;28;20270;-72
2021/08/10 07:57:27;;;;;;;8.27;3.88;;;;;;;35.45;26.77;100522.09;5115308;28;20118;-72
2021/08/10 07:59:58;;;;;;;9.73;4.20;;;;;;;35.22;26.96;100520.53;5132389;27;20031;-71
2021/08/10 08:02:29;;;;;;;6.22;4.45;;;;;;;35.46;26.66;100522.88;5115696;28;20027;-72
2021/08/10 08:04:57;;;;;;;8.30;4.75;;;;;;;35.97;26.23;100524.34;5114387;28;20444;-72
2021/08/10 08:07:23;;;;;;;7.70;4.25;;;;;;;35.83;26.01;100517.50;5115252;28;20031;-71
2021/08/10 08:09:53;;;;;;;9.90;4.82;;;;;;;35.85;26.02;100516.97;5115082;28;20088;-73
2021/08/10 08:12:22;;;;;;;11.07;4.00;;;;;;;35.83;25.73;100514.63;5115305;28;20027;-72
2021/08/10 08:14:47;;;;;;;8.43;4.15;;;;;;;36.31;25.18;100521.28;5116287;28;20046;-72
2021/08/10 08:17:15;;;;;;;8.27;3.53;;;;;;;36.00;25.21;100525.38;5131776;27;20478;-72
2021/08/10 08:19:44;;;;;;;6.80;3.80;;;;;;;36.79;24.85;100526.50;5115866;28;20074;-73
2021/08/10 08:22:12;;;;;;;7.70;3.70;;;;;;;36.27;25.81;100515.75;5114788;28;20034;-71
2021/08/10 08:24:41;;;;;;;8.15;3.75;;;;;;;37.00;24.49;100518.22;5114817;28;20059;-71
2021/08/10 08:27:11;;;;;;;3.88;2.42;;;;;;;36.61;23.69;100533.78;5116627;27;20481;-71
2021/08/10 08:29:39;;;;;;;2.40;1.70;;;;;;;36.34;24.49;100538.38;5114736;28;20028;-72
2021/08/10 08:32:08;;;;;;;3.65;2.10;;;;;;;36.54;23.50;100527.75;5114618;28;20123;-72
2021/08/10 08:34:39;;;;;;;5.05;2.25;;;;;;;36.58;23.53;100510.84;5132493;27;20088;-72
2021/08/10 08:37:08;;;;;;;5.07;1.88;;;;;;;36.82;22.93;100502.25;5114399;28;20020;-71
2021/08/10 08:39:37;;;;;;;5.00;1.70;;;;;;;36.98;22.54;100515.06;5114487;28;20074;-72
2021/08/10 08:42:08;;;;;;;1.98;1.70;;;;;;;37.66;21.34;100518.09;5115748;28;20478;-71
2021/08/10 08:44:37;;;;;;;2.05;1.50;;;;;;;38.40;19.97;100519.56;5114188;28;20030;-72
2021/08/10 08:47:11;;;;;;;3.30;1.85;;;;;;;38.66;20.22;100507.28;5114203;28;20141;-72
2021/08/10 08:49:38;;;;;;;2.33;1.33;;;;;;;38.49;20.61;100503.88;5131386;27;20039;-72
2021/08/10 08:52:12;;;;;;;8.60;1.98;;;;;;;38.63;20.81;100513.44;5114513;28;20474;-72
2021/08/10 08:54:40;;;;;;;4.07;1.95;;;;;;;38.57;20.48;100521.44;5116123;28;20038;-71
2021/08/10 08:57:10;;;;;;;2.88;1.85;;;;;;;38.29;20.70;100501.53;5115451;28;20047;-72
2021/08/10 08:59:44;;;;;;;6.50;2.42;;;;;;;38.31;21.38;100495.97;5131453;27;20074;-72
2021/08/10 09:02:17;;;;;;;3.92;1.42;;;;;;;38.06;20.52;100503.94;5114592;28;20092;-72
2021/08/10 09:04:46;;;;;;;3.25;1.60;;;;;;;38.91;19.65;100505.06;5115236;28;20115;-72
2021/08/10 09:07:15;;;;;;;1.77;1.40;;;;;;;39.01;19.69;100488.78;5131391;27;20478;-72
2021/08/10 09:09:45;;;;;;;5.32;1.50;;;;;;;39.29;19.13;100493.31;5131019;27;20027;-72
2021/08/10 09:12:21;;;;;;;4.07;2.22;;;;;;;39.50;18.99;100497.16;5115259;28;20099;-72
2021/08/10 09:14:52;;;;;;;3.42;1.40;;;;;;;38.72;19.56;100498.47;5114332;28;20031;-72
2021/08/10 09:17:23;;;;;;;2.65;1.90;;;;;;;38.88;19.54;100488.72;5097490;28;20028;-72
2021/08/10 09:19:54;;;;;;;8.00;1.92;;;;;;;38.82;19.24;100485.13;5114965;28;20043;-72
2021/08/10 09:22:32;;;;;;;1.98;1.38;;;;;;;38.73;18.73;100480.53;5130570;27;20030;-72
2021/08/10 09:25:14;;;;;;;1.95;1.50;;;;;;;39.31;18.61;100479.00;5130550;27;20032;-72
2021/08/10 09:27:46;;;;;;;3.67;1.42;;;;;;;40.20;17.78;100464.75;5114616;28;20069;-72
2021/08/10 09:30:15;;;;;;;4.95;1.65;;;;;;;40.30;17.66;100468.75;5113650;28;20354;-72
2021/08/10 09:32:59;;;;;;;5.13;1.63;;;;;;;40.09;17.70;100458.38;5115290;28;20034;-71
2021/08/10 09:35:32;;;;;;;4.38;1.90;;;;;;;39.96;17.60;100462.88;5129837;27;20031;-72
2021/08/10 09:38:17;;;;;;;2.67;1.88;;;;;;;40.23;17.21;100459.94;5113297;28;20118;-72
2021/08/10 09:40:46;;;;;;;3.20;1.80;;;;;;;41.02;16.69;100455.91;5130275;27;20465;-72
2021/08/10 09:43:24;;;;;;;3.40;1.60;;;;;;;40.12;17.59;100446.41;5113090;28;20042;-73
2021/08/10 09:46:20;;;;;;;3.45;1.63;;;;;;;39.12;18.25;100446.28;5112967;28;20110;-71
2021/08/10 09:48:48;;;;;;;3.35;1.70;;;;;;;39.42;17.95;100446.78;5130168;27;20031;-72
2021/08/10 09:51:21;;;;;;;3.95;1.70;;;;;;;38.85;17.68;100437.50;5112950;28;20031;-72
2021/08/10 09:54:19;;;;;;;2.97;1.95;;;;;;;39.53;17.70;100437.03;5113133;28;20027;-72
2021/08/10 09:56:51;;;;;;;3.20;1.80;;;;;;;40.40;17.25;100447.88;5112437;28;20104;-72
2021/08/10 09:59:26;;;;;;;7.65;2.08;;;;;;;40.79;16.94;100432.31;5113475;28;20035;-72
2021/08/10 10:01:56;;;;;;;6.45;1.80;;;;;;;41.25;16.32;100426.88;5112906;28;20061;-72
2021/08/10 10:04:29;;;;;;;2.55;1.88;;;;;;;41.86;15.92;100421.41;5113556;28;20110;-72
2021/08/10 10:06:57;;;;;;;6.32;1.67;;;;;;;41.14;16.56;100421.34;5113781;28;20027;-71
2021/08/10 10:09:29;;;;;;;3.20;1.58;;;;;;;39.71;17.67;100412.06;5129479;27;20032;-73
2021/08/10 10:12:00;;;;;;;10.43;2.13;;;;;;;39.68;17.40;100419.78;5112260;28;20031;-72
2021/08/10 10:14:29;;;;;;;3.42;2.22;;;;;;;40.58;15.92;100418.53;5114232;28;20123;-73
2021/08/10 10:17:01;;;;;;;4.60;1.48;;;;;;;41.22;16.37;100410.50;5129685;27;20083;-73
2021/08/10 10:19:29;;;;;;;5.90;1.90;;;;;;;40.55;15.88;100413.84;5112682;28;20051;-73
2021/08/10 10:22:04;;;;;;;5.05;2.17;;;;;;;40.18;15.96;100406.25;5113056;28;20458;-72
2021/08/10 10:24:40;;;;;;;2.97;1.70;;;;;;;40.69;16.27;100399.97;5114296;28;20027;-71
2021/08/10 10:27:07;;;;;;;4.53;1.67;;;;;;;41.20;15.09;100401.56;5112817;28;20058;-72
2021/08/10 10:29:33;;;;;;;2.83;1.65;;;;;;;41.23;14.77;100386.59;5113590;28;20073;-72
2021/08/10 10:32:02;;;;;;;3.58;1.75;;;;;;;40.70;15.40;100392.00;5112966;28;20424;-72
2021/08/10 10:34:35;;;;;;;6.18;1.70;;;;;;;40.78;15.27;100384.09;5112961;28;20175;-71
2021/08/10 10:37:02;;;;;;;4.85;1.70;;;;;;;41.24;15.50;100391.06;5112907;28;20370;-71
2021/08/10 10:39:34;;;;;;;3.55;1.52;;;;;;;40.80;15.24;100393.03;5112681;28;20032;-71
2021/08/10 10:42:05;;;;;;;;;;;;;;;41.15;15.06;100406.19;5130130;28;20462;-72
2021/08/10 10:44:52;;;;;;;4.70;2.13;;;;;;;41.15;14.78;100417.06;5112556;28;19911;-72
2021/08/10 10:47:23;;;;;;;4.25;2.85;;;;;;;40.70;15.45;100419.03;5113030;28;20123;-71
2021/08/10 10:50:11;;;;;;;4.63;1.63;;;;;;;41.19;14.34;100417.50;5113275;28;20374;-72
2021/08/10 10:52:56;;;;;;;3.67;1.63;;;;;;;40.50;14.75;100397.28;5112985;28;20031;-72
2021/08/10 10:55:33;;;;;;;4.97;1.52;;;;;;;40.40;14.23;100402.00;5129499;28;20038;-71
2021/08/10 10:57:59;;;;;;;6.93;1.63;;;;;;;40.46;14.18;100405.56;5112897;28;20101;-72
2021/08/10 11:00:29;;;;;;;4.00;1.83;;;;;;;40.11;15.38;100394.50;5112527;28;20466;-72
2021/08/10 11:03:13;;;;;;;6.78;1.95;;;;;;;40.61;16.53;100398.34;5113164;28;20392;-72
2021/08/10 11:05:41;;;;;;;2.80;1.73;;;;;;;40.68;15.88;100397.63;5129416;28;20027;-72
2021/08/10 11:08:37;;;;;;;5.47;1.90;;;;;;;41.24;14.99;100390.28;5113298;28;20024;-72
2021/08/10 11:11:44;;;;;;;6.22;1.70;;;;;;;41.69;14.27;100383.94;5113274;28;20123;-71
2021/08/10 11:14:35;;;;;;;5.55;1.38;;;;;;;40.97;13.71;100373.00;5113118;28;20458;-72
2021/08/10 11:17:15;;;;;;;7.43;2.22;;;;;;;41.02;15.43;100369.16;5098646;28;20513;-71
2021/08/10 11:19:45;;;;;;;6.13;1.80;;;;;;;41.55;14.71;100338.69;5113397;28;20051;-71
2021/08/10 11:22:17;;;;;;;6.47;2.00;;;;;;;41.99;14.73;100377.44;5112135;28;20024;-72
2021/08/10 11:24:53;;;;;;;5.60;2.50;;;;;;;41.54;12.68;100372.19;5112171;28;20027;-72
2021/08/10 11:27:43;;;;;;;5.50;2.28;;;;;;;41.04;13.24;100381.00;5113779;28;20028;-71
2021/08/10 11:30:24;;;;;;;8.50;1.75;;;;;;;41.27;13.37;100378.22;5112495;28;20389;-71
2021/08/10 11:32:50;;;;;;;1.95;1.30;;;;;;;40.78;13.82;100378.25;5112970;28;20024;-71
2021/08/10 11:35:29;;;;;;;7.72;1.98;;;;;;;40.61;14.61;100375.03;5112172;28;20028;-72
2021/08/10 11:38:18;;;;;;;4.30;1.67;;;;;;;40.42;12.38;100355.56;5112366;28;20055;-71
2021/08/10 11:40:51;;;;;;;5.20;1.20;;;;;;;40.17;12.82;100348.56;5114189;28;20019;-72
2021/08/10 11:43:17;;;;;;;5.10;1.98;;;;;;;40.20;14.73;100344.47;5115781;28;20553;-72